Time;durP1;ratioP1;P1;durP2;ratioP2;P2;SDS_P1;SDS_P2;PMS_P1;PMS_P2;Temp;Humidity;BMP_temperature;BMP_pressure;BME280_temperature;BME280_humidity;BME280_pressure;Samples;Min_cycle;Max_cycle;Signal;HPM_P1;HPM_P2
2023/04/26 00:03:06;;;;;;;4.40;3.63;;;11.30;38.70;;;;;;10461681;28;20243;-67
2023/04/26 00:08:10;;;;;;;4.40;4.00;;;11.20;38.60;;;;;;10460558;28;20582;-67
2023/04/26 00:13:14;;;;;;;4.97;3.93;;;11.20;38.50;;;;;;10463205;28;20231;-67
2023/04/26 00:18:17;;;;;;;5.83;4.10;;;11.20;38.60;;;;;;10462858;28;20220;-67
2023/04/26 00:23:20;;;;;;;4.67;4.27;;;11.10;38.60;;;;;;10458667;28;20228;-66
2023/04/26 00:28:25;;;;;;;4.87;4.37;;;11.10;38.80;;;;;;10457884;28;20232;-67
2023/04/26 00:33:29;;;;;;;4.53;4.13;;;11.10;38.80;;;;;;10457578;28;20232;-67
2023/04/26 00:38:32;;;;;;;4.67;4.27;;;11.10;38.70;;;;;;10458366;28;20235;-67
2023/04/26 00:43:37;;;;;;;4.13;3.83;;;11.10;38.80;;;;;;10458890;28;20609;-67
2023/04/26 00:48:40;;;;;;;5.20;4.60;;;11.10;38.80;;;;;;10461415;28;20591;-67
2023/04/26 00:53:43;;;;;;;4.77;4.30;;;11.10;38.60;;;;;;10455645;28;20233;-67
2023/04/26 00:58:48;;;;;;;5.30;4.87;;;11.00;38.60;;;;;;10460549;28;20235;-66
2023/04/26 01:03:51;;;;;;;4.80;4.20;;;11.00;38.60;;;;;;10457393;28;20233;-67
2023/04/26 01:08:59;;;;;;;5.27;4.77;;;11.00;38.40;;;;;;10458316;28;20232;-66
2023/04/26 01:14:04;;;;;;;5.53;5.03;;;10.90;38.70;;;;;;10455913;28;20246;-67
2023/04/26 01:19:09;;;;;;;5.00;4.60;;;10.80;38.70;;;;;;10455924;28;20251;-67
2023/04/26 01:24:14;;;;;;;5.83;4.87;;;10.80;38.70;;;;;;10463157;28;20221;-67
2023/04/26 01:29:19;;;;;;;6.00;5.23;;;10.70;38.90;;;;;;10458261;28;20221;-67
2023/04/26 01:34:22;;;;;;;5.10;4.60;;;10.60;38.70;;;;;;10460017;28;20240;-67
2023/04/26 01:39:26;;;;;;;5.83;5.27;;;10.60;38.70;;;;;;10466871;28;20235;-67
2023/04/26 01:44:30;;;;;;;6.37;5.53;;;10.50;39.10;;;;;;10465858;28;20228;-67
2023/04/26 01:49:33;;;;;;;5.40;4.90;;;10.40;38.90;;;;;;10466383;28;20229;-67
2023/04/26 01:54:37;;;;;;;6.07;5.43;;;10.40;39.10;;;;;;10465080;28;20256;-66
2023/04/26 01:59:40;;;;;;;6.23;5.63;;;10.40;39.40;;;;;;10468015;28;20233;-66
2023/04/26 02:04:44;;;;;;;6.27;5.67;;;10.40;39.20;;;;;;10462993;28;20258;-67
2023/04/26 02:09:50;;;;;;;6.03;5.53;;;10.30;39.20;;;;;;10468663;28;20673;-66
2023/04/26 02:14:53;;;;;;;6.30;5.77;;;10.30;39.50;;;;;;10460492;28;20232;-66
2023/04/26 02:19:57;;;;;;;5.00;4.57;;;10.30;39.30;;;;;;10468030;28;20251;-69
2023/04/26 02:25:01;;;;;;;6.00;5.40;;;10.30;39.30;;;;;;10464629;28;20604;-69
2023/04/26 02:30:05;;;;;;;5.90;5.40;;;10.30;39.50;;;;;;10459134;28;20267;-69
2023/04/26 02:35:09;;;;;;;6.23;5.73;;;10.30;39.10;;;;;;10461703;28;20740;-69
2023/04/26 02:40:14;;;;;;;5.80;5.20;;;10.30;39.20;;;;;;10458234;28;20236;-69
2023/04/26 02:45:17;;;;;;;6.53;5.93;;;10.30;39.50;;;;;;10468363;28;20241;-69
2023/04/26 02:50:20;;;;;;;6.27;5.67;;;10.20;39.30;;;;;;10457775;28;20585;-69
2023/04/26 02:55:25;;;;;;;6.90;6.20;;;10.20;39.30;;;;;;10460684;28;20239;-69
2023/04/26 03:00:28;;;;;;;7.40;6.70;;;10.20;39.50;;;;;;10460096;28;20235;-69
2023/04/26 03:05:31;;;;;;;7.20;6.60;;;10.20;39.40;;;;;;10465462;28;20815;-69
2023/04/26 03:10:36;;;;;;;6.60;6.00;;;10.20;39.50;;;;;;10465928;28;20235;-69
2023/04/26 03:15:39;;;;;;;7.23;6.50;;;10.20;39.90;;;;;;10460669;28;20224;-69
2023/04/26 03:20:42;;;;;;;7.60;6.90;;;10.20;39.50;;;;;;10465521;28;20233;-69
2023/04/26 03:25:47;;;;;;;7.63;6.83;;;10.20;39.60;;;;;;10464968;28;20243;-69
2023/04/26 03:30:50;;;;;;;7.17;6.47;;;10.20;40.30;;;;;;10459816;28;20240;-69
2023/04/26 03:35:53;;;;;;;8.10;7.30;;;10.20;39.90;;;;;;10462393;28;20708;-69
2023/04/26 03:40:58;;;;;;;8.17;7.33;;;10.20;40.10;;;;;;10460776;28;20780;-69
2023/04/26 03:46:01;;;;;;;7.60;6.57;;;10.20;40.10;;;;;;10458507;28;20263;-69
2023/04/26 03:51:05;;;;;;;8.40;7.60;;;10.20;40.10;;;;;;10462240;28;20237;-69
2023/04/26 03:56:09;;;;;;;8.50;7.67;;;10.20;40.10;;;;;;10456935;28;20225;-69
2023/04/26 04:01:13;;;;;;;8.13;7.30;;;10.20;40.20;;;;;;10458611;28;20740;-69
2023/04/26 04:06:16;;;;;;;8.10;7.30;;;10.20;40.00;;;;;;10463189;28;20781;-69
2023/04/26 04:11:21;;;;;;;8.13;7.43;;;10.20;40.10;;;;;;10463949;28;20255;-69
2023/04/26 04:16:25;;;;;;;8.53;7.63;;;10.20;40.10;;;;;;10453618;28;20335;-69
2023/04/26 04:21:28;;;;;;;7.87;7.07;;;10.10;39.90;;;;;;10455933;28;21040;-69
2023/04/26 04:26:33;;;;;;;8.70;7.90;;;10.10;40.00;;;;;;10458449;28;20278;-69
2023/04/26 04:31:36;;;;;;;9.13;8.23;;;10.10;40.00;;;;;;10451482;28;20787;-69
2023/04/26 04:36:39;;;;;;;9.30;8.27;;;10.00;39.90;;;;;;10455091;28;20306;-69
2023/04/26 04:41:46;;;;;;;9.73;8.73;;;10.00;39.90;;;;;;10455027;28;20224;-69
2023/04/26 04:46:50;;;;;;;8.60;7.70;;;9.90;40.80;;;;;;10456385;28;20232;-69
2023/04/26 04:51:53;;;;;;;9.33;8.43;;;9.80;40.70;;;;;;10455782;28;20310;-68
2023/04/26 04:56:58;;;;;;;9.83;8.70;;;9.70;40.60;;;;;;10450906;28;20250;-69
2023/04/26 05:02:01;;;;;;;8.80;7.93;;;9.70;41.10;;;;;;10450171;28;20244;-70
2023/04/26 05:07:05;;;;;;;8.73;7.90;;;9.70;40.80;;;;;;10457030;28;20225;-69
2023/04/26 05:12:10;;;;;;;10.40;8.77;;;9.70;40.90;;;;;;10455394;28;20231;-70
2023/04/26 05:17:13;;;;;;;8.07;7.23;;;9.70;41.50;;;;;;10462775;28;20235;-72
2023/04/26 05:22:17;;;;;;;8.37;7.57;;;9.80;41.40;;;;;;10462628;28;20231;-69
2023/04/26 05:27:22;;;;;;;9.00;7.73;;;9.80;41.40;;;;;;10460346;28;20224;-69
2023/04/26 05:32:25;;;;;;;8.70;7.80;;;9.80;41.70;;;;;;10456748;28;20232;-69
2023/04/26 05:37:28;;;;;;;9.47;7.60;;;9.90;41.30;;;;;;10456580;28;20273;-69
2023/04/26 05:42:33;;;;;;;9.50;7.00;;;10.00;39.90;;;;;;10455686;28;20233;-70
2023/04/26 05:47:37;;;;;;;7.70;7.00;;;10.00;39.90;;;;;;10463019;28;20264;-69
2023/04/26 05:52:40;;;;;;;7.23;6.53;;;10.00;39.90;;;;;;10458291;28;20260;-69
2023/04/26 05:57:44;;;;;;;7.63;6.67;;;10.00;39.90;;;;;;10460230;28;20259;-69
2023/04/26 06:02:48;;;;;;;7.63;6.17;;;10.10;40.00;;;;;;10460345;28;20764;-69
2023/04/26 06:07:52;;;;;;;7.80;6.60;;;10.10;40.00;;;;;;10464697;28;20256;-69
2023/04/26 06:12:56;;;;;;;6.23;5.63;;;10.10;40.00;;;;;;10461827;28;20232;-69
2023/04/26 06:17:59;;;;;;;7.70;6.43;;;10.20;40.10;;;;;;10458625;28;20714;-69
2023/04/26 06:23:03;;;;;;;6.87;5.90;;;10.30;40.20;;;;;;10451756;28;20235;-69
2023/04/26 06:28:08;;;;;;;9.80;6.63;;;10.40;40.30;;;;;;10462104;28;20738;-69
2023/04/26 06:33:11;;;;;;;7.17;6.07;;;10.50;40.40;;;;;;10464899;28;20244;-70
2023/04/26 06:38:14;;;;;;;6.10;5.50;;;10.50;40.40;;;;;;10464469;28;20282;-69
2023/04/26 06:43:18;;;;;;;9.50;5.80;;;10.60;39.60;;;;;;10460769;28;20232;-70
2023/04/26 06:48:21;;;;;;;8.47;5.83;;;10.60;39.40;;;;;;10462222;28;20236;-70
2023/04/26 06:53:25;;;;;;;7.57;5.67;;;10.60;39.00;;;;;;10465728;28;20301;-70
2023/04/26 06:58:29;;;;;;;8.57;5.50;;;10.60;39.20;;;;;;10467856;28;20224;-70
2023/04/26 07:03:33;;;;;;;5.27;4.57;;;10.60;39.20;;;;;;10465770;28;20240;-70
2023/04/26 07:08:36;;;;;;;5.83;4.60;;;10.70;38.80;;;;;;10464679;28;20228;-70
2023/04/26 07:13:40;;;;;;;7.27;4.93;;;10.80;39.10;;;;;;10458473;28;20248;-70
2023/04/26 07:18:44;;;;;;;7.77;4.80;;;10.90;39.00;;;;;;10462212;28;20886;-70
2023/04/26 07:23:47;;;;;;;5.07;3.90;;;11.00;39.20;;;;;;10462472;28;20233;-70
2023/04/26 07:28:52;;;;;;;4.50;4.07;;;11.10;38.30;;;;;;10462742;28;20581;-70
2023/04/26 07:33:55;;;;;;;7.17;3.60;;;11.20;38.10;;;;;;10458366;28;20252;-70
2023/04/26 07:38:59;;;;;;;4.73;3.50;;;11.20;38.10;;;;;;10457544;28;21021;-70
2023/04/26 07:44:04;;;;;;;4.50;3.50;;;11.40;38.20;;;;;;10455070;28;20228;-69
2023/04/26 07:49:07;;;;;;;5.03;3.23;;;11.50;37.90;;;;;;10458479;28;20228;-69
2023/04/26 07:54:10;;;;;;;5.83;3.60;;;11.60;37.40;;;;;;10459595;28;20235;-70
2023/04/26 07:59:15;;;;;;;4.90;3.90;;;11.70;38.00;;;;;;10459941;28;20243;-70
2023/04/26 08:04:18;;;;;;;5.87;4.27;;;11.90;38.20;;;;;;10461931;28;20228;-70
2023/04/26 08:09:22;;;;;;;5.60;3.57;;;12.00;38.30;;;;;;10453132;28;20255;-70
2023/04/26 08:14:27;;;;;;;6.23;4.00;;;12.20;37.50;;;;;;10462027;28;20225;-70
2023/04/26 08:19:32;;;;;;;3.33;3.03;;;12.30;36.80;;;;;;10457507;28;20232;-70
2023/04/26 08:24:35;;;;;;;3.60;3.30;;;12.50;37.10;;;;;;10453276;28;20235;-70
2023/04/26 08:29:40;;;;;;;4.37;3.57;;;12.60;37.20;;;;;;10452319;28;21231;-70
2023/04/26 08:34:43;;;;;;;6.53;3.60;;;12.70;35.80;;;;;;10456340;28;20625;-70
2023/04/26 08:39:46;;;;;;;4.23;3.60;;;12.80;36.10;;;;;;10461420;28;20224;-70
2023/04/26 08:44:53;;;;;;;5.13;3.73;;;12.80;35.90;;;;;;10459273;28;20224;-70
2023/04/26 08:49:59;;;;;;;4.27;3.53;;;12.80;35.10;;;;;;10469861;28;20224;-70
2023/04/26 08:55:05;;;;;;;3.80;3.50;;;12.90;35.10;;;;;;10469021;28;20216;-69
2023/04/26 09:00:12;;;;;;;4.40;3.03;;;13.00;35.60;;;;;;10466320;28;20315;-70
2023/04/26 09:05:15;;;;;;;4.30;3.43;;;13.10;34.60;;;;;;10471755;28;20311;-70
2023/04/26 09:10:20;;;;;;;5.70;3.50;;;13.10;35.00;;;;;;10468481;28;20227;-70
2023/04/26 09:15:27;;;;;;;5.20;3.53;;;13.00;34.60;;;;;;10466649;28;20232;-70
2023/04/26 09:20:31;;;;;;;5.27;3.83;;;13.00;34.40;;;;;;10466074;28;20229;-70
2023/04/26 09:25:35;;;;;;;5.87;3.70;;;13.00;34.90;;;;;;10467538;28;20244;-70
2023/04/26 09:30:40;;;;;;;5.50;3.60;;;13.00;35.00;;;;;;10469614;28;20243;-70
2023/04/26 09:35:43;;;;;;;3.93;3.53;;;13.00;33.80;;;;;;10464743;28;20235;-70
2023/04/26 09:40:48;;;;;;;4.00;3.60;;;13.00;34.50;;;;;;10464649;28;20329;-69
2023/04/26 09:45:54;;;;;;;3.50;3.20;;;13.00;34.10;;;;;;10467287;28;20251;-70
2023/04/26 09:50:59;;;;;;;5.23;3.50;;;12.90;33.60;;;;;;10465995;28;20765;-70
2023/04/26 09:56:10;;;;;;;4.70;3.13;;;13.00;34.20;;;;;;10466817;28;20231;-69
2023/04/26 10:01:16;;;;;;;4.53;3.40;;;13.00;32.90;;;;;;10459378;28;20242;-70
2023/04/26 10:06:20;;;;;;;5.10;3.47;;;13.00;33.90;;;;;;10465158;28;20232;-69
2023/04/26 10:11:25;;;;;;;5.43;2.97;;;13.20;34.60;;;;;;10461939;28;20231;-69
2023/04/26 10:16:30;;;;;;;5.03;3.10;;;13.40;34.00;;;;;;10467957;28;20232;-69
2023/04/26 10:21:37;;;;;;;3.20;2.73;;;13.60;33.10;;;;;;10464407;28;20233;-70
2023/04/26 10:26:55;;;;;;;5.63;2.97;;;13.80;34.10;;;;;;10456994;28;20221;-69
2023/04/26 10:32:15;;;;;;;3.50;3.03;;;14.00;32.60;;;;;;10455338;28;20626;-69
2023/04/26 10:37:18;;;;;;;3.77;2.90;;;14.20;33.90;;;;;;10456245;28;20252;-69
2023/04/26 10:42:24;;;;;;;4.23;2.80;;;14.40;32.70;;;;;;10452201;28;20918;-70
2023/04/26 10:47:32;;;;;;;3.53;2.47;;;14.40;31.60;;;;;;10449878;28;20240;-70
2023/04/26 10:52:37;;;;;;;4.57;2.80;;;14.40;31.60;;;;;;10451424;28;20232;-70
2023/04/26 10:57:53;;;;;;;3.47;2.67;;;14.50;33.00;;;;;;10454719;28;20225;-69
2023/04/26 11:03:11;;;;;;;3.10;2.30;;;14.50;31.00;;;;;;10453715;28;20317;-70
2023/04/26 11:08:19;;;;;;;3.03;2.73;;;14.60;31.80;;;;;;10453444;28;20604;-69
2023/04/26 11:13:22;;;;;;;3.97;2.70;;;14.70;31.20;;;;;;10454153;28;20228;-69
2023/04/26 11:18:27;;;;;;;4.73;3.20;;;14.70;31.80;;;;;;10451683;28;20238;-70
2023/04/26 11:23:31;;;;;;;4.43;3.20;;;14.60;31.80;;;;;;10453427;28;20286;-69
2023/04/26 11:28:36;;;;;;;4.43;2.67;;;14.50;31.70;;;;;;10456166;28;20235;-69
2023/04/26 11:33:41;;;;;;;2.77;2.30;;;14.40;30.90;;;;;;10453380;28;20237;-69
2023/04/26 11:38:44;;;;;;;2.30;2.10;;;14.40;31.20;;;;;;10457383;28;20601;-70
2023/04/26 11:43:48;;;;;;;3.83;2.10;;;14.40;31.60;;;;;;10462006;28;20232;-69
2023/04/26 11:48:53;;;;;;;2.53;2.20;;;14.40;30.00;;;;;;10457532;28;20790;-70
2023/04/26 11:54:00;;;;;;;4.47;2.47;;;14.20;29.50;;;;;;10458645;28;20232;-70
2023/04/26 11:59:04;;;;;;;2.63;1.97;;;14.20;30.40;;;;;;10460440;28;20224;-69
2023/04/26 12:04:10;;;;;;;3.53;2.37;;;14.20;30.40;;;;;;10455293;28;20308;-69
2023/04/26 12:09:13;;;;;;;3.90;2.30;;;14.20;29.70;;;;;;10457781;28;20440;-69
2023/04/26 12:14:16;;;;;;;2.80;2.00;;;14.20;30.00;;;;;;10455043;28;20220;-70
2023/04/26 12:19:25;;;;;;;3.00;2.10;;;14.20;30.60;;;;;;10457420;28;20231;-70
2023/04/26 12:24:32;;;;;;;3.83;2.67;;;14.40;29.80;;;;;;10451309;28;20446;-73
2023/04/26 12:29:35;;;;;;;4.27;2.40;;;14.50;30.30;;;;;;10454594;28;20237;-73
2023/04/26 12:34:40;;;;;;;4.53;2.37;;;14.70;30.10;;;;;;10454987;28;20306;-73
2023/04/26 12:39:45;;;;;;;2.73;2.27;;;14.70;29.40;;;;;;10455073;28;20224;-73
2023/04/26 12:44:48;;;;;;;3.93;2.20;;;14.70;29.70;;;;;;10456137;28;20601;-74
2023/04/26 12:49:53;;;;;;;3.97;1.87;;;14.80;29.80;;;;;;10454026;28;20758;-73
2023/04/26 12:54:56;;;;;;;3.97;2.80;;;14.80;29.80;;;;;;10461170;28;20229;-73
2023/04/26 12:59:59;;;;;;;4.23;2.67;;;15.00;30.10;;;;;;10461214;28;20260;-73
2023/04/26 13:05:05;;;;;;;3.03;2.20;;;15.10;29.50;;;;;;10459523;28;20556;-73
2023/04/26 13:10:10;;;;;;;2.67;2.10;;;15.20;28.90;;;;;;10455693;28;20272;-73
2023/04/26 13:15:15;;;;;;;3.43;2.30;;;15.30;29.10;;;;;;10454670;28;20228;-73
2023/04/26 13:20:21;;;;;;;3.50;2.03;;;15.40;29.50;;;;;;10456751;28;20732;-73
2023/04/26 13:25:27;;;;;;;2.80;1.90;;;15.50;28.90;;;;;;10456997;28;20236;-72
2023/04/26 13:30:31;;;;;;;2.93;2.23;;;15.50;29.40;;;;;;10458278;28;20253;-72
2023/04/26 13:35:36;;;;;;;3.13;2.30;;;15.60;28.90;;;;;;10467296;28;20235;-73
2023/04/26 13:40:39;;;;;;;2.77;2.00;;;15.60;28.60;;;;;;10467572;28;20227;-73
2023/04/26 13:45:42;;;;;;;2.73;2.23;;;15.60;29.00;;;;;;10464149;28;20228;-73
2023/04/26 13:50:47;;;;;;;2.20;2.10;;;15.60;29.10;;;;;;10462700;28;20659;-73
2023/04/26 13:55:50;;;;;;;2.40;2.20;;;15.70;28.50;;;;;;10464388;28;20229;-72
2023/04/26 14:00:53;;;;;;;3.77;2.10;;;15.80;28.90;;;;;;10459208;28;20628;-71
2023/04/26 14:05:58;;;;;;;3.53;2.10;;;15.90;29.30;;;;;;10460892;28;20235;-72
2023/04/26 14:11:01;;;;;;;2.23;1.93;;;16.00;28.40;;;;;;10461496;28;20244;-73
2023/04/26 14:16:05;;;;;;;2.20;2.00;;;16.10;28.10;;;;;;10461682;28;20221;-72
2023/04/26 14:21:10;;;;;;;2.27;2.03;;;16.00;28.00;;;;;;10459457;28;20233;-67
2023/04/26 14:26:13;;;;;;;3.37;2.30;;;15.90;27.50;;;;;;10460641;28;20233;-69
2023/04/26 14:31:18;;;;;;;2.67;2.30;;;15.90;28.10;;;;;;10460172;28;20229;-66
2023/04/26 14:36:23;;;;;;;3.90;2.40;;;15.90;28.20;;;;;;10465381;28;20227;-72
2023/04/26 14:41:26;;;;;;;2.87;2.23;;;15.90;27.30;;;;;;10462339;28;20703;-72
2023/04/26 14:46:29;;;;;;;2.43;2.23;;;15.90;28.20;;;;;;10458239;28;20750;-66
2023/04/26 14:51:34;;;;;;;4.00;2.27;;;15.90;27.60;;;;;;10460343;28;20732;-66
2023/04/26 14:56:37;;;;;;;3.40;2.50;;;15.80;27.30;;;;;;10462377;28;20237;-66
2023/04/26 15:01:40;;;;;;;3.47;2.17;;;15.80;27.60;;;;;;10459716;28;20225;-67
2023/04/26 15:06:45;;;;;;;3.60;2.53;;;15.70;27.10;;;;;;10462382;28;20268;-68
2023/04/26 15:11:48;;;;;;;2.73;2.20;;;15.60;26.70;;;;;;10457465;28;20771;-73
2023/04/26 15:16:51;;;;;;;3.43;2.30;;;15.50;27.20;;;;;;10462706;28;20734;-72
2023/04/26 15:21:56;;;;;;;3.67;2.50;;;15.40;27.10;;;;;;10460218;28;20600;-72
2023/04/26 15:26:59;;;;;;;3.33;2.60;;;15.40;27.10;;;;;;10456252;28;20224;-72
2023/04/26 15:32:03;;;;;;;4.03;2.83;;;15.40;27.20;;;;;;10457705;28;20611;-70
2023/04/26 15:37:07;;;;;;;3.77;2.37;;;15.40;27.20;;;;;;10453496;28;20830;-66
2023/04/26 15:42:11;;;;;;;3.87;2.47;;;15.40;27.30;;;;;;10451458;28;20577;-66
2023/04/26 15:47:14;;;;;;;3.87;2.40;;;15.50;27.50;;;;;;10455303;28;20221;-66
2023/04/26 15:52:18;;;;;;;3.07;2.10;;;15.50;27.20;;;;;;10455747;28;20224;-66
2023/04/26 15:57:21;;;;;;;2.47;1.90;;;15.50;27.10;;;;;;10458324;28;21138;-66
2023/04/26 16:02:25;;;;;;;3.50;2.43;;;15.60;27.50;;;;;;10453344;28;20232;-71
2023/04/26 16:07:30;;;;;;;3.07;2.30;;;15.60;27.00;;;;;;10462639;28;20291;-72
2023/04/26 16:12:35;;;;;;;3.10;2.20;;;15.60;26.70;;;;;;10456662;28;20234;-71
2023/04/26 16:17:39;;;;;;;3.23;2.37;;;15.60;27.20;;;;;;10454387;28;20221;-72
2023/04/26 16:22:43;;;;;;;2.53;2.00;;;15.60;26.90;;;;;;10458101;28;20293;-72
2023/04/26 16:27:47;;;;;;;3.33;2.30;;;15.60;27.00;;;;;;10457325;28;20217;-72
2023/04/26 16:32:50;;;;;;;2.30;2.10;;;15.60;27.10;;;;;;10454492;28;20233;-66
2023/04/26 16:37:55;;;;;;;4.97;2.20;;;15.60;27.00;;;;;;10452240;28;20598;-66
2023/04/26 16:42:58;;;;;;;2.73;2.10;;;15.60;26.40;;;;;;10453067;28;20220;-66
2023/04/26 16:48:01;;;;;;;3.17;2.17;;;15.70;26.80;;;;;;10456531;28;20232;-66
2023/04/26 16:53:06;;;;;;;2.07;1.90;;;15.70;26.80;;;;;;10448468;28;20225;-65
2023/04/26 16:58:09;;;;;;;2.97;2.10;;;15.60;26.50;;;;;;10451735;28;20224;-66
2023/04/26 17:03:13;;;;;;;6.80;2.27;;;15.70;26.80;;;;;;10453282;28;20286;-66
2023/04/26 17:08:19;;;;;;;2.67;1.70;;;15.70;26.80;;;;;;10454229;28;20216;-66
2023/04/26 17:13:23;;;;;;;2.20;1.50;;;15.80;26.40;;;;;;10459936;28;20343;-65
2023/04/26 17:18:26;;;;;;;2.70;1.70;;;15.80;26.70;;;;;;10459010;28;20402;-66
2023/04/26 17:23:32;;;;;;;3.70;1.60;;;15.80;26.70;;;;;;10457410;28;20232;-66
2023/04/26 17:28:37;;;;;;;2.57;1.70;;;15.80;26.30;;;;;;10461106;28;20268;-66
2023/04/26 17:33:42;;;;;;;2.20;1.57;;;15.80;26.50;;;;;;10458073;28;20663;-66
2023/04/26 17:38:47;;;;;;;2.70;1.80;;;15.80;26.60;;;;;;10461610;28;20224;-65
2023/04/26 17:43:50;;;;;;;1.70;1.60;;;15.80;26.50;;;;;;10458828;28;20235;-68
2023/04/26 17:48:54;;;;;;;4.40;1.67;;;15.80;26.60;;;;;;10461301;28;20235;-68
2023/04/26 17:53:58;;;;;;;4.30;1.80;;;15.80;26.70;;;;;;10462479;28;20243;-68
2023/04/26 17:59:01;;;;;;;1.53;1.43;;;15.80;26.60;;;;;;10460331;28;20617;-69
2023/04/26 18:04:05;;;;;;;4.57;1.60;;;15.80;26.90;;;;;;10456168;28;20220;-68
2023/04/26 18:09:10;;;;;;;2.83;1.90;;;15.80;27.00;;;;;;10458673;28;20312;-68
2023/04/26 18:14:13;;;;;;;1.47;1.37;;;15.70;26.70;;;;;;10460437;28;20228;-68
2023/04/26 18:19:16;;;;;;;1.57;1.20;;;15.70;26.90;;;;;;10457067;28;20247;-68
2023/04/26 18:24:21;;;;;;;2.83;1.50;;;15.70;26.90;;;;;;10461157;28;20991;-68
2023/04/26 18:29:24;;;;;;;1.87;1.43;;;15.60;26.70;;;;;;10459034;28;20228;-68
2023/04/26 18:34:27;;;;;;;2.53;1.70;;;15.60;27.30;;;;;;10460579;28;20228;-69
2023/04/26 18:39:32;;;;;;;1.47;1.33;;;15.50;27.20;;;;;;10463018;28;20413;-68
2023/04/26 18:44:35;;;;;;;2.93;1.87;;;15.50;27.30;;;;;;10463109;28;20253;-69
2023/04/26 18:49:38;;;;;;;2.73;1.50;;;15.50;27.50;;;;;;10458423;28;20597;-68
2023/04/26 18:54:43;;;;;;;3.10;2.80;;;15.40;27.60;;;;;;10457175;28;20743;-68
2023/04/26 18:59:46;;;;;;;2.60;2.40;;;15.40;27.50;;;;;;10456583;28;20224;-71
2023/04/26 19:04:49;;;;;;;2.33;2.13;;;15.30;27.50;;;;;;10455863;28;20244;-71
2023/04/26 19:09:58;;;;;;;3.73;2.53;;;15.20;27.80;;;;;;10459788;28;20231;-71
2023/04/26 19:15:02;;;;;;;3.40;3.10;;;15.20;27.80;;;;;;10461222;28;20312;-74
2023/04/26 19:20:11;;;;;;;3.73;3.20;;;15.10;27.90;;;;;;10458776;28;20212;-71
2023/04/26 19:25:19;;;;;;;3.47;3.17;;;15.10;27.90;;;;;;10457458;28;20213;-72
2023/04/26 19:30:22;;;;;;;2.20;2.00;;;15.10;28.00;;;;;;10451200;28;20236;-71
2023/04/26 19:35:25;;;;;;;4.53;2.23;;;15.10;28.20;;;;;;10454407;28;20231;-65
2023/04/26 19:40:30;;;;;;;2.43;2.23;;;15.00;28.20;;;;;;10448610;28;20254;-66
2023/04/26 19:45:33;;;;;;;2.60;1.80;;;15.00;28.20;;;;;;10452067;28;20369;-66
2023/04/26 19:50:39;;;;;;;2.63;2.23;;;14.90;28.10;;;;;;10449314;28;20235;-65
2023/04/26 19:55:44;;;;;;;2.60;2.10;;;14.90;28.20;;;;;;10452959;28;20756;-65
2023/04/26 20:00:47;;;;;;;2.70;1.77;;;14.80;28.50;;;;;;10447687;28;20621;-65
2023/04/26 20:05:50;;;;;;;2.10;1.90;;;14.80;28.50;;;;;;10444778;28;20311;-65
2023/04/26 20:10:54;;;;;;;2.03;1.80;;;14.70;28.50;;;;;;10449024;28;20667;-65
2023/04/26 20:15:57;;;;;;;4.00;2.83;;;14.60;28.40;;;;;;10443235;28;20635;-65
2023/04/26 20:21:01;;;;;;;3.47;3.17;;;14.60;28.40;;;;;;10440564;28;20243;-65
2023/04/26 20:26:05;;;;;;;2.97;2.40;;;14.40;28.30;;;;;;10451110;28;20232;-66
2023/04/26 20:31:08;;;;;;;3.97;3.27;;;14.30;28.40;;;;;;10450583;28;20228;-66
2023/04/26 20:36:11;;;;;;;4.53;3.30;;;14.30;28.50;;;;;;10452806;28;20227;-65
2023/04/26 20:41:16;;;;;;;3.07;2.40;;;14.20;28.50;;;;;;10452651;28;20657;-66
2023/04/26 20:46:19;;;;;;;1.80;1.70;;;14.10;28.50;;;;;;10451039;28;20235;-65
2023/04/26 20:51:22;;;;;;;3.30;2.07;;;14.10;28.50;;;;;;10453755;28;20239;-65
2023/04/26 20:56:27;;;;;;;4.13;3.07;;;14.00;28.50;;;;;;10455562;28;20589;-65
2023/04/26 21:01:30;;;;;;;3.70;3.27;;;14.00;28.50;;;;;;10454791;28;20282;-65
2023/04/26 21:06:33;;;;;;;4.53;3.37;;;13.80;28.40;;;;;;10452424;28;20612;-71
2023/04/26 21:11:38;;;;;;;4.00;3.67;;;13.70;28.80;;;;;;10456880;28;20731;-71
2023/04/26 21:16:41;;;;;;;4.30;3.50;;;13.60;29.10;;;;;;10454269;28;20308;-71
2023/04/26 21:21:44;;;;;;;3.90;3.50;;;13.60;29.10;;;;;;10455646;28;20243;-71
2023/04/26 21:26:49;;;;;;;3.90;3.50;;;13.50;29.20;;;;;;10455216;28;20248;-71
2023/04/26 21:31:52;;;;;;;3.43;2.77;;;13.60;29.50;;;;;;10453010;28;20607;-71
2023/04/26 21:36:55;;;;;;;5.10;4.50;;;13.50;29.30;;;;;;10450802;28;20329;-71
2023/04/26 21:42:02;;;;;;;6.63;4.90;;;13.50;29.50;;;;;;10454995;28;20248;-71
2023/04/26 21:47:05;;;;;;;4.97;4.47;;;13.50;29.60;;;;;;10454411;28;20229;-71
2023/04/26 21:52:08;;;;;;;5.70;5.20;;;13.50;29.50;;;;;;10454517;28;20331;-71
2023/04/26 21:57:13;;;;;;;3.90;3.60;;;13.40;29.50;;;;;;10465725;28;20743;-71
2023/04/26 22:02:16;;;;;;;5.13;4.63;;;13.30;29.60;;;;;;10464208;28;20244;-71
2023/04/26 22:07:20;;;;;;;6.43;4.90;;;13.30;29.70;;;;;;10457731;28;20408;-71
2023/04/26 22:12:24;;;;;;;6.63;4.53;;;13.20;29.60;;;;;;10464219;28;20331;-71
2023/04/26 22:17:28;;;;;;;4.87;4.37;;;13.20;30.00;;;;;;10469000;28;20311;-71
2023/04/26 22:22:31;;;;;;;6.07;3.90;;;13.10;30.10;;;;;;10465437;28;20228;-71
2023/04/26 22:27:35;;;;;;;4.10;3.80;;;13.00;30.40;;;;;;10467227;28;20224;-71
2023/04/26 22:32:38;;;;;;;4.50;4.10;;;13.00;30.40;;;;;;10465502;28;20227;-71
2023/04/26 22:37:42;;;;;;;5.17;3.80;;;13.00;30.40;;;;;;10463262;28;20225;-71
2023/04/26 22:42:46;;;;;;;4.47;4.07;;;12.90;30.30;;;;;;10464733;28;20788;-71
2023/04/26 22:47:49;;;;;;;5.10;4.70;;;12.90;30.30;;;;;;10466741;28;20224;-71
2023/04/26 22:52:53;;;;;;;4.40;4.00;;;12.90;30.30;;;;;;10464519;28;20290;-71
2023/04/26 22:57:57;;;;;;;3.80;3.43;;;12.90;30.30;;;;;;10461318;28;20229;-70
2023/04/26 23:03:00;;;;;;;4.40;4.00;;;12.90;30.30;;;;;;10455492;28;20229;-71
2023/04/26 23:08:04;;;;;;;4.37;3.97;;;12.80;30.20;;;;;;10462601;28;20666;-71
2023/04/26 23:13:08;;;;;;;5.50;4.30;;;12.80;30.20;;;;;;10464727;28;20751;-70
2023/04/26 23:18:12;;;;;;;3.27;3.00;;;12.80;30.30;;;;;;10461328;28;20229;-71
2023/04/26 23:23:16;;;;;;;3.83;3.53;;;12.70;30.10;;;;;;10463894;28;20235;-71
2023/04/26 23:28:20;;;;;;;3.70;3.00;;;12.70;30.40;;;;;;10465528;28;20228;-70
2023/04/26 23:33:24;;;;;;;3.60;3.30;;;12.70;30.80;;;;;;10462615;28;20234;-71
2023/04/26 23:38:27;;;;;;;3.60;3.30;;;12.70;30.70;;;;;;10463682;28;20224;-71
2023/04/26 23:43:31;;;;;;;4.50;3.77;;;12.70;30.80;;;;;;10463177;28;20232;-71
2023/04/26 23:48:35;;;;;;;3.57;3.13;;;12.70;31.20;;;;;;10459143;28;20221;-71
2023/04/26 23:53:39;;;;;;;4.40;3.80;;;12.60;30.60;;;;;;10462400;28;20244;-71
2023/04/26 23:58:43;;;;;;;3.70;3.40;;;12.60;30.80;;;;;;10468790;28;20220;-71
